createdAt,value
2022-10-06T00:02:24.945Z,17.95
2022-10-06T00:04:51.495Z,17.98
2022-10-06T00:07:18.230Z,18.01
2022-10-06T00:09:44.712Z,18.02
2022-10-06T00:12:11.719Z,18.03
2022-10-06T00:14:38.332Z,18.01
2022-10-06T00:17:05.189Z,18.05
2022-10-06T00:19:31.633Z,18.01
2022-10-06T00:21:58.143Z,18.07
2022-10-06T00:24:24.636Z,18.06
2022-10-06T00:26:51.207Z,18.00
2022-10-06T00:29:18.659Z,17.91
2022-10-06T00:31:45.243Z,17.98
2022-10-06T00:34:11.656Z,17.95
2022-10-06T00:36:38.779Z,17.96
2022-10-06T00:39:05.388Z,18.02
2022-10-06T00:41:31.837Z,18.01
2022-10-06T00:43:59.257Z,17.94
2022-10-06T00:46:41.215Z,17.90
2022-10-06T00:49:20.826Z,17.89
2022-10-06T00:52:07.048Z,17.95
2022-10-06T00:54:36.071Z,17.91
2022-10-06T00:57:04.610Z,17.89
2022-10-06T00:59:31.161Z,17.90
2022-10-06T01:02:09.421Z,17.83
2022-10-06T01:04:41.162Z,17.84
2022-10-06T01:07:08.484Z,17.78
2022-10-06T01:09:35.164Z,17.80
2022-10-06T01:12:04.830Z,17.79
2022-10-06T01:14:32.067Z,17.79
2022-10-06T01:17:37.395Z,17.80
2022-10-06T01:20:15.040Z,17.72
2022-10-06T01:22:44.847Z,17.74
2022-10-06T01:25:14.152Z,17.75
2022-10-06T01:27:44.696Z,17.67
2022-10-06T01:30:16.168Z,17.78
2022-10-06T01:32:42.949Z,18.10
2022-10-06T01:35:10.078Z,17.87
2022-10-06T01:37:36.636Z,17.78
2022-10-06T01:40:03.379Z,17.71
2022-10-06T01:42:32.946Z,17.59
2022-10-06T01:44:59.872Z,17.53
2022-10-06T01:47:26.440Z,17.55
2022-10-06T01:49:52.986Z,17.60
2022-10-06T01:52:20.355Z,17.67
2022-10-06T01:54:46.839Z,17.63
2022-10-06T01:57:13.416Z,17.67
2022-10-06T01:59:39.917Z,17.76
2022-10-06T02:02:06.437Z,17.68
2022-10-06T02:04:32.978Z,17.83
2022-10-06T02:06:59.446Z,17.78
2022-10-06T02:09:25.966Z,17.68
2022-10-06T02:11:52.443Z,17.66
2022-10-06T02:14:18.856Z,17.66
2022-10-06T02:16:45.548Z,17.48
2022-10-06T02:19:12.179Z,17.38
2022-10-06T02:21:39.802Z,17.45
2022-10-06T02:24:06.478Z,17.39
2022-10-06T02:26:33.166Z,17.21
2022-10-06T02:28:59.722Z,17.27
2022-10-06T02:31:26.289Z,17.30
2022-10-06T02:33:52.903Z,17.26
2022-10-06T02:36:19.885Z,17.22
2022-10-06T02:38:46.545Z,17.16
2022-10-06T02:41:13.020Z,17.20
2022-10-06T02:43:39.490Z,17.26
2022-10-06T02:46:13.644Z,17.09
2022-10-06T02:48:41.268Z,17.16
2022-10-06T02:51:11.563Z,17.27
2022-10-06T02:53:38.571Z,17.36
2022-10-06T02:56:08.083Z,17.32
2022-10-06T02:58:34.932Z,17.34
2022-10-06T03:01:06.573Z,17.37
2022-10-06T03:03:37.184Z,17.32
2022-10-06T03:06:25.433Z,17.32
2022-10-06T03:08:55.892Z,17.24
2022-10-06T03:11:30.145Z,17.09
2022-10-06T03:13:57.114Z,17.00
2022-10-06T03:16:26.698Z,17.03
2022-10-06T03:18:55.291Z,17.04
2022-10-06T03:21:24.027Z,17.19
2022-10-06T03:23:53.339Z,17.15
2022-10-06T03:26:22.650Z,17.20
2022-10-06T03:28:49.459Z,17.10
2022-10-06T03:31:16.426Z,17.07
2022-10-06T03:33:42.882Z,16.91
2022-10-06T03:36:16.573Z,16.75
2022-10-06T03:38:43.521Z,16.76
2022-10-06T03:41:16.149Z,16.81
2022-10-06T03:43:44.185Z,16.78
2022-10-06T03:46:12.667Z,16.87
2022-10-06T03:48:39.802Z,16.62
2022-10-06T03:51:11.375Z,16.44
2022-10-06T03:53:38.041Z,16.44
2022-10-06T03:56:04.556Z,16.52
2022-10-06T03:58:33.768Z,16.51
2022-10-06T04:01:01.546Z,16.46
2022-10-06T04:03:28.418Z,16.63
2022-10-06T04:06:00.790Z,16.57
2022-10-06T04:08:28.758Z,16.57
2022-10-06T04:10:56.274Z,16.63
2022-10-06T04:13:22.795Z,16.65
2022-10-06T04:15:49.215Z,16.60
2022-10-06T04:18:16.141Z,16.62
2022-10-06T04:20:42.641Z,16.52
2022-10-06T04:23:09.718Z,16.62
2022-10-06T04:25:36.192Z,16.60
2022-10-06T04:28:02.714Z,16.76
2022-10-06T04:30:29.262Z,16.70
2022-10-06T04:32:55.778Z,16.60
2022-10-06T04:35:23.381Z,16.66
2022-10-06T04:37:50.291Z,16.81
2022-10-06T04:40:16.839Z,16.62
2022-10-06T04:42:43.317Z,16.47
2022-10-06T04:45:10.501Z,16.34
2022-10-06T04:47:36.976Z,16.54
2022-10-06T04:50:03.945Z,16.58
2022-10-06T04:52:30.486Z,16.65
2022-10-06T04:54:57.291Z,16.72
2022-10-06T04:57:23.771Z,16.76
2022-10-06T05:00:12.562Z,16.65
2022-10-06T05:02:41.613Z,16.58
2022-10-06T05:05:08.183Z,16.47
2022-10-06T05:07:34.640Z,16.42
2022-10-06T05:10:01.110Z,16.46
2022-10-06T05:12:31.104Z,16.47
2022-10-06T05:14:58.038Z,16.52
2022-10-06T05:17:24.611Z,16.40
2022-10-06T05:19:51.074Z,16.33
2022-10-06T05:22:17.548Z,16.34
2022-10-06T05:24:44.027Z,16.20
2022-10-06T05:27:10.463Z,16.22
2022-10-06T05:29:37.119Z,16.52
2022-10-06T05:32:04.995Z,16.39
2022-10-06T05:34:31.614Z,16.38
2022-10-06T05:36:58.099Z,16.37
2022-10-06T05:39:24.650Z,16.17
2022-10-06T05:41:51.623Z,16.20
2022-10-06T05:44:18.042Z,16.27
2022-10-06T05:46:44.548Z,16.29
2022-10-06T05:49:12.912Z,16.41
2022-10-06T05:51:42.621Z,16.38
2022-10-06T05:54:09.076Z,16.34
2022-10-06T05:56:37.488Z,16.32
2022-10-06T05:59:05.115Z,16.24
2022-10-06T06:01:37.183Z,16.29
2022-10-06T06:04:06.507Z,16.27
2022-10-06T06:06:36.285Z,16.35
2022-10-06T06:09:08.426Z,16.37
2022-10-06T06:11:37.395Z,16.30
2022-10-06T06:14:12.828Z,16.51
2022-10-06T06:16:40.405Z,16.59
2022-10-06T06:19:08.901Z,16.49
2022-10-06T06:21:35.440Z,16.49
2022-10-06T06:24:02.850Z,16.56
2022-10-06T06:26:31.777Z,16.66
2022-10-06T06:29:03.910Z,16.73
2022-10-06T06:31:36.687Z,16.80
2022-10-06T06:34:06.471Z,16.86
2022-10-06T06:36:41.109Z,16.91
2022-10-06T06:39:10.621Z,16.98
2022-10-06T06:41:43.126Z,17.12
2022-10-06T06:44:11.435Z,17.16
2022-10-06T06:46:38.830Z,17.24
2022-10-06T06:49:06.455Z,17.27
2022-10-06T06:51:40.234Z,17.42
2022-10-06T06:54:07.905Z,17.53
2022-10-06T06:56:35.424Z,17.68
2022-10-06T06:59:06.595Z,17.76
2022-10-06T07:01:33.102Z,17.90
2022-10-06T07:03:59.660Z,18.13
2022-10-06T07:06:28.719Z,18.33
2022-10-06T07:08:57.649Z,18.59
2022-10-06T07:11:28.439Z,18.81
2022-10-06T07:14:01.297Z,19.12
2022-10-06T07:16:48.175Z,19.46
2022-10-06T07:19:34.577Z,19.53
2022-10-06T07:22:26.138Z,19.92
2022-10-06T07:25:07.856Z,20.09
2022-10-06T07:27:40.339Z,20.37
2022-10-06T07:30:07.219Z,20.55
2022-10-06T07:32:33.734Z,20.58
2022-10-06T07:35:00.783Z,20.75
2022-10-06T07:37:31.194Z,20.97
2022-10-06T07:39:57.673Z,21.06
2022-10-06T07:42:24.178Z,21.10
2022-10-06T07:45:09.203Z,21.32
2022-10-06T07:47:38.297Z,21.73
2022-10-06T07:50:08.623Z,21.72
2022-10-06T07:53:07.633Z,21.45
2022-10-06T07:55:36.303Z,21.11
2022-10-06T07:58:02.865Z,21.37
2022-10-06T08:00:29.393Z,21.14
2022-10-06T08:02:56.161Z,21.47
2022-10-06T08:05:22.672Z,21.39
2022-10-06T08:07:49.159Z,21.24
2022-10-06T08:10:18.354Z,21.03
2022-10-06T08:12:44.781Z,20.95
2022-10-06T08:15:12.971Z,20.95
2022-10-06T08:17:40.304Z,20.96
2022-10-06T08:20:09.838Z,21.17
2022-10-06T08:22:38.769Z,21.12
2022-10-06T08:25:07.573Z,21.07
2022-10-06T08:27:35.521Z,21.20
2022-10-06T08:30:04.102Z,20.95
2022-10-06T08:32:32.158Z,21.23
2022-10-06T08:34:58.985Z,21.03
2022-10-06T08:37:26.813Z,20.99
2022-10-06T08:39:54.692Z,20.90
2022-10-06T08:42:43.378Z,21.12
2022-10-06T08:45:32.086Z,20.93
2022-10-06T08:48:09.146Z,21.19
2022-10-06T08:50:43.812Z,21.25
2022-10-06T08:53:29.692Z,21.26
2022-10-06T08:56:18.055Z,21.30
2022-10-06T08:58:59.358Z,21.16
2022-10-06T09:01:29.940Z,21.25
2022-10-06T09:04:01.920Z,21.07
2022-10-06T09:06:51.742Z,21.00
2022-10-06T09:09:53.732Z,21.06
2022-10-06T09:12:20.800Z,20.88
2022-10-06T09:14:53.586Z,21.24
2022-10-06T09:17:29.736Z,21.19
2022-10-06T09:20:29.063Z,21.24
2022-10-06T09:22:56.756Z,21.19
2022-10-06T09:25:28.048Z,21.07
2022-10-06T09:27:57.511Z,21.35
2022-10-06T09:30:24.157Z,21.20
2022-10-06T09:33:02.734Z,21.16
2022-10-06T09:35:31.212Z,21.35
2022-10-06T09:38:08.157Z,21.37
2022-10-06T09:40:49.668Z,21.48
2022-10-06T09:43:22.675Z,21.53
2022-10-06T09:45:51.632Z,21.54
2022-10-06T09:48:25.202Z,21.38
2022-10-06T09:51:14.814Z,21.45
2022-10-06T09:53:42.026Z,21.57
2022-10-06T09:56:21.375Z,21.79
2022-10-06T09:58:56.436Z,21.78
2022-10-06T10:01:28.176Z,21.85
2022-10-06T10:04:20.686Z,21.73
2022-10-06T10:06:47.138Z,21.82
2022-10-06T10:09:21.910Z,21.67
2022-10-06T10:12:24.412Z,21.71
2022-10-06T10:14:52.091Z,21.89
2022-10-06T10:17:32.425Z,22.01
2022-10-06T10:20:01.382Z,22.31
2022-10-06T10:22:35.150Z,22.32
2022-10-06T10:25:04.493Z,22.11
2022-10-06T10:27:52.127Z,22.13
2022-10-06T10:30:18.770Z,22.40
2022-10-06T10:32:52.784Z,22.26
2022-10-06T10:35:47.131Z,22.17
2022-10-06T10:38:19.117Z,22.24
2022-10-06T10:41:09.699Z,22.50
2022-10-06T10:43:47.239Z,22.52
2022-10-06T10:46:21.666Z,22.22
2022-10-06T10:49:26.653Z,22.07
2022-10-06T10:52:09.233Z,22.32
2022-10-06T10:55:00.691Z,22.27
2022-10-06T10:57:35.275Z,22.28
2022-10-06T11:00:08.584Z,22.19
2022-10-06T11:02:35.742Z,22.21
2022-10-06T11:05:28.243Z,22.11
2022-10-06T11:08:11.074Z,22.27
2022-10-06T11:10:47.902Z,22.41
2022-10-06T11:13:48.896Z,22.63
2022-10-06T11:16:33.329Z,22.47
2022-10-06T11:19:41.302Z,22.70
2022-10-06T11:22:33.395Z,22.59
2022-10-06T11:25:13.532Z,22.67
2022-10-06T11:28:08.329Z,22.96
2022-10-06T11:31:00.089Z,22.88
2022-10-06T11:33:37.997Z,22.79
2022-10-06T11:36:12.352Z,23.00
2022-10-06T11:38:52.092Z,23.30
2022-10-06T11:41:31.556Z,23.30
2022-10-06T11:44:26.326Z,23.23
2022-10-06T11:46:57.012Z,23.33
2022-10-06T11:49:29.281Z,23.06
2022-10-06T11:52:00.119Z,23.12
2022-10-06T11:54:40.250Z,23.30
2022-10-06T11:57:30.962Z,23.51
2022-10-06T12:00:16.018Z,23.38
2022-10-06T12:02:44.566Z,23.30
2022-10-06T12:05:54.403Z,23.23
2022-10-06T12:08:08.071Z,23.40
2022-10-06T12:10:35.227Z,23.38
2022-10-06T12:13:21.168Z,23.42
2022-10-06T12:19:38.842Z,23.46
2022-10-06T12:22:32.986Z,23.67
2022-10-06T12:25:18.336Z,23.45
2022-10-06T12:28:04.767Z,23.24
2022-10-06T12:30:44.390Z,23.39
2022-10-06T12:33:18.597Z,23.13
2022-10-06T12:35:45.728Z,23.04
2022-10-06T12:38:30.870Z,23.43
2022-10-06T12:40:57.851Z,23.58
2022-10-06T12:43:24.273Z,23.59
2022-10-06T12:46:22.124Z,23.34
2022-10-06T12:49:06.797Z,23.58
2022-10-06T12:51:39.827Z,23.61
2022-10-06T12:54:12.048Z,23.86
2022-10-06T12:56:41.415Z,23.96
2022-10-06T12:59:22.659Z,23.87
2022-10-06T13:01:51.960Z,23.77
2022-10-06T13:04:43.609Z,23.75
2022-10-06T13:07:12.705Z,23.54
2022-10-06T13:09:39.209Z,23.39
2022-10-06T13:12:22.800Z,23.83
2022-10-06T13:15:19.767Z,23.84
2022-10-06T13:17:50.264Z,24.01
2022-10-06T13:20:25.324Z,23.79
2022-10-06T13:23:00.095Z,23.81
2022-10-06T13:25:34.206Z,23.85
2022-10-06T13:28:02.300Z,23.74
2022-10-06T13:30:29.016Z,23.88
2022-10-06T13:32:56.628Z,23.84
2022-10-06T13:35:25.809Z,23.59
2022-10-06T13:37:53.955Z,23.66
2022-10-06T13:40:46.068Z,23.58
2022-10-06T13:43:17.744Z,23.58
2022-10-06T13:45:47.242Z,23.49
2022-10-06T13:48:18.680Z,23.69
2022-10-06T13:50:49.470Z,23.51
2022-10-06T13:53:25.694Z,23.26
2022-10-06T13:55:53.147Z,23.07
2022-10-06T13:58:23.826Z,22.92
2022-10-06T14:01:02.020Z,22.84
2022-10-06T14:06:22.121Z,23.26
2022-10-06T14:08:55.246Z,23.32
2022-10-06T14:11:26.483Z,23.58
2022-10-06T14:13:58.082Z,23.51
2022-10-06T14:16:26.475Z,23.62
2022-10-06T14:21:35.039Z,23.80
2022-10-06T14:24:20.699Z,23.67
2022-10-06T14:26:52.225Z,23.56
2022-10-06T14:29:19.236Z,23.49
2022-10-06T14:31:47.195Z,23.63
2022-10-06T14:34:16.465Z,23.54
2022-10-06T14:36:45.626Z,23.67
2022-10-06T14:39:14.083Z,23.88
2022-10-06T14:41:41.893Z,24.01
2022-10-06T14:44:12.150Z,23.78
2022-10-06T14:46:41.260Z,23.63
2022-10-06T14:49:09.274Z,23.79
2022-10-06T14:51:37.358Z,23.80
2022-10-06T14:54:05.837Z,23.69
2022-10-06T14:56:34.312Z,23.54
2022-10-06T14:59:05.222Z,23.58
2022-10-06T15:01:34.206Z,23.58
2022-10-06T15:04:06.625Z,23.62
2022-10-06T15:06:51.535Z,23.40
2022-10-06T15:09:18.134Z,23.25
2022-10-06T15:11:45.043Z,23.24
2022-10-06T15:14:11.641Z,23.16
2022-10-06T15:16:42.062Z,23.27
2022-10-06T15:19:10.928Z,23.31
2022-10-06T15:21:39.793Z,23.52
2022-10-06T15:24:08.099Z,23.49
2022-10-06T15:26:53.140Z,23.38
2022-10-06T15:29:19.568Z,23.75
2022-10-06T15:31:53.055Z,23.59
2022-10-06T15:34:27.813Z,23.61
2022-10-06T15:36:55.975Z,23.65
2022-10-06T15:39:25.481Z,23.67
2022-10-06T15:41:52.715Z,23.73
2022-10-06T15:44:20.079Z,23.85
2022-10-06T15:46:56.778Z,23.66
2022-10-06T15:49:29.462Z,23.53
2022-10-06T15:51:59.349Z,23.41
2022-10-06T15:54:30.843Z,23.42
2022-10-06T15:56:59.507Z,23.62
2022-10-06T15:59:28.107Z,23.56
2022-10-06T16:01:57.675Z,23.43
2022-10-06T16:04:38.293Z,23.63
2022-10-06T16:07:16.353Z,23.46
2022-10-06T16:09:50.687Z,23.27
2022-10-06T16:12:20.553Z,23.24
2022-10-06T16:14:47.628Z,23.16
2022-10-06T16:17:15.028Z,22.99
2022-10-06T16:19:41.752Z,23.03
2022-10-06T16:22:11.790Z,23.09
2022-10-06T16:24:38.450Z,23.07
2022-10-06T16:27:05.292Z,23.01
2022-10-06T16:29:32.124Z,23.01
2022-10-06T16:32:01.407Z,23.16
2022-10-06T16:34:27.863Z,22.93
2022-10-06T16:36:54.267Z,22.94
2022-10-06T16:39:22.065Z,23.01
2022-10-06T16:41:49.087Z,22.86
2022-10-06T16:44:16.006Z,22.69
2022-10-06T16:46:43.205Z,22.59
2022-10-06T16:49:10.038Z,22.68
2022-10-06T16:51:38.619Z,22.65
2022-10-06T16:54:07.636Z,22.50
2022-10-06T16:56:45.100Z,22.44
2022-10-06T16:59:17.503Z,22.45
2022-10-06T17:01:44.467Z,22.32
2022-10-06T17:04:13.607Z,22.26
2022-10-06T17:06:45.349Z,22.30
2022-10-06T17:09:14.177Z,22.37
2022-10-06T17:11:46.153Z,22.33
2022-10-06T17:14:12.902Z,22.24
2022-10-06T17:16:42.071Z,22.12
2022-10-06T17:19:11.275Z,22.07
2022-10-06T17:21:46.240Z,22.03
2022-10-06T17:24:14.482Z,22.08
2022-10-06T17:26:43.368Z,22.01
2022-10-06T17:29:18.207Z,21.93
2022-10-06T17:31:45.567Z,21.87
2022-10-06T17:34:20.897Z,21.80
2022-10-06T17:36:50.538Z,21.74
2022-10-06T17:39:19.318Z,21.65
2022-10-06T17:41:47.609Z,21.57
2022-10-06T17:44:22.813Z,21.65
2022-10-06T17:46:51.856Z,21.81
2022-10-06T17:49:20.656Z,21.75
2022-10-06T17:51:50.856Z,21.98
2022-10-06T17:54:20.161Z,21.81
2022-10-06T17:56:49.263Z,21.95
2022-10-06T17:59:18.887Z,21.75
2022-10-06T18:01:45.519Z,21.68
2022-10-06T18:04:17.049Z,21.55
2022-10-06T18:06:45.349Z,21.39
2022-10-06T18:09:12.806Z,21.32
2022-10-06T18:11:41.783Z,21.24
2022-10-06T18:14:16.589Z,21.28
2022-10-06T18:16:53.419Z,21.24
2022-10-06T18:19:28.588Z,21.41
2022-10-06T18:22:00.239Z,21.59
2022-10-06T18:24:29.119Z,21.55
2022-10-06T18:26:58.411Z,21.28
2022-10-06T18:29:28.972Z,21.62
2022-10-06T18:32:04.818Z,21.30
2022-10-06T18:37:29.250Z,21.02
2022-10-06T18:39:55.711Z,21.18
2022-10-06T18:42:22.158Z,21.03
2022-10-06T18:45:07.079Z,20.86
2022-10-06T18:48:11.783Z,20.89
2022-10-06T18:50:39.444Z,20.74
2022-10-06T18:53:05.988Z,20.71
2022-10-06T18:55:32.684Z,20.71
2022-10-06T18:57:59.142Z,20.64
2022-10-06T19:00:25.997Z,20.50
2022-10-06T19:02:54.844Z,20.45
2022-10-06T19:05:21.340Z,20.53
2022-10-06T19:07:47.762Z,20.65
2022-10-06T19:10:14.264Z,20.50
2022-10-06T19:12:40.722Z,20.31
2022-10-06T19:15:08.409Z,20.44
2022-10-06T19:17:35.471Z,20.30
2022-10-06T19:20:02.533Z,20.18
2022-10-06T19:22:29.483Z,20.08
2022-10-06T19:24:56.532Z,20.18
2022-10-06T19:27:28.485Z,20.26
2022-10-06T19:29:56.904Z,20.07
2022-10-06T19:32:27.277Z,20.00
2022-10-06T19:34:57.943Z,19.99
2022-10-06T19:37:29.910Z,19.95
2022-10-06T19:39:57.187Z,19.84
2022-10-06T19:42:42.945Z,19.84
2022-10-06T19:45:12.431Z,19.80
2022-10-06T19:47:52.962Z,19.98
2022-10-06T19:50:20.126Z,20.00
2022-10-06T19:52:47.216Z,20.09
2022-10-06T19:55:14.588Z,20.07
2022-10-06T19:57:41.916Z,19.81
2022-10-06T20:00:10.599Z,19.73
2022-10-06T20:02:42.132Z,19.69
2022-10-06T20:05:11.814Z,19.58
2022-10-06T20:07:38.866Z,19.51
2022-10-06T20:10:06.161Z,19.53
2022-10-06T20:12:35.269Z,19.43
2022-10-06T20:15:02.374Z,19.41
2022-10-06T20:17:29.424Z,19.29
2022-10-06T20:19:59.691Z,19.29
2022-10-06T20:22:26.750Z,19.28
2022-10-06T20:24:54.022Z,19.17
2022-10-06T20:27:21.252Z,19.08
2022-10-06T20:29:47.776Z,18.99
2022-10-06T20:32:14.266Z,18.94
2022-10-06T20:34:40.867Z,18.91
2022-10-06T20:37:07.365Z,18.87
2022-10-06T20:39:52.521Z,18.85
2022-10-06T20:42:20.691Z,18.78
2022-10-06T20:44:47.155Z,18.76
2022-10-06T20:47:13.755Z,18.80
2022-10-06T20:49:42.378Z,18.89
2022-10-06T20:52:09.985Z,19.02
2022-10-06T20:54:37.427Z,19.00
2022-10-06T20:57:06.509Z,18.90
2022-10-06T20:59:35.377Z,18.89
2022-10-06T21:02:02.782Z,18.91
2022-10-06T21:04:30.284Z,18.80
2022-10-06T21:06:57.353Z,18.68
2022-10-06T21:09:28.661Z,18.61
2022-10-06T21:11:56.455Z,18.59
2022-10-06T21:14:23.204Z,18.53
2022-10-06T21:16:50.740Z,18.49
2022-10-06T21:19:19.206Z,18.49
2022-10-06T21:21:51.912Z,18.50
2022-10-06T21:24:19.508Z,18.48
2022-10-06T21:26:46.257Z,18.39
2022-10-06T21:29:15.335Z,18.32
2022-10-06T21:31:42.653Z,18.26
2022-10-06T21:34:09.322Z,18.25
2022-10-06T21:36:36.169Z,18.25
2022-10-06T21:39:04.651Z,18.19
2022-10-06T21:41:35.992Z,18.15
2022-10-06T21:44:08.162Z,18.14
2022-10-06T21:46:39.296Z,18.13
2022-10-06T21:49:09.867Z,18.11
2022-10-06T21:51:37.283Z,18.14
2022-10-06T21:54:04.449Z,18.04
2022-10-06T21:56:32.644Z,18.00
2022-10-06T21:58:59.633Z,17.96
2022-10-06T22:01:28.905Z,17.96
2022-10-06T22:03:57.240Z,17.99
2022-10-06T22:06:24.105Z,17.98
2022-10-06T22:08:50.619Z,18.00
2022-10-06T22:11:19.280Z,17.98
2022-10-06T22:13:48.364Z,18.00
2022-10-06T22:16:18.844Z,18.12
2022-10-06T22:18:46.058Z,18.18
2022-10-06T22:21:21.493Z,18.11
2022-10-06T22:23:54.733Z,18.06
2022-10-06T22:26:21.273Z,17.97
2022-10-06T22:28:50.045Z,17.89
2022-10-06T22:31:21.946Z,17.86
2022-10-06T22:33:54.884Z,17.88
2022-10-06T22:36:22.016Z,17.91
2022-10-06T22:38:48.627Z,17.86
2022-10-06T22:41:15.418Z,17.85
2022-10-06T22:43:42.319Z,17.85
2022-10-06T22:46:10.835Z,17.90
2022-10-06T22:48:37.795Z,17.92
2022-10-06T22:51:05.141Z,17.92
2022-10-06T22:53:32.337Z,17.92
2022-10-06T22:56:00.238Z,17.92
2022-10-06T22:58:27.133Z,17.91
2022-10-06T23:00:54.236Z,17.87
2022-10-06T23:03:21.476Z,17.90
2022-10-06T23:05:59.436Z,17.93
2022-10-06T23:08:30.183Z,17.93
2022-10-06T23:11:10.599Z,17.89
2022-10-06T23:13:37.457Z,17.84
2022-10-06T23:16:07.772Z,17.80
2022-10-06T23:18:36.517Z,17.79
2022-10-06T23:21:27.113Z,17.80
2022-10-06T23:23:55.685Z,17.79
2022-10-06T23:26:23.540Z,17.79
2022-10-06T23:28:52.371Z,17.76
2022-10-06T23:31:19.152Z,17.75
2022-10-06T23:33:46.112Z,17.75
2022-10-06T23:36:12.897Z,17.69
2022-10-06T23:38:40.142Z,17.66
2022-10-06T23:41:06.948Z,17.66
2022-10-06T23:43:33.782Z,17.64
2022-10-06T23:46:00.635Z,17.64
2022-10-06T23:48:27.578Z,17.65
2022-10-06T23:51:01.962Z,17.63
2022-10-06T23:53:30.171Z,17.62
2022-10-06T23:55:57.529Z,17.59
2022-10-06T23:58:24.634Z,17.60
